createdAt,value
2023-02-28T00:00:11.625Z,10.60
2023-02-28T00:02:39.681Z,10.54
2023-02-28T00:05:09.454Z,10.50
2023-02-28T00:07:39.728Z,10.44
2023-02-28T00:10:09.504Z,10.47
2023-02-28T00:12:38.831Z,10.45
2023-02-28T00:15:08.859Z,10.44
2023-02-28T00:17:39.275Z,10.40
2023-02-28T00:20:09.687Z,10.35
2023-02-28T00:22:41.443Z,10.35
2023-02-28T00:25:11.361Z,10.31
2023-02-28T00:27:41.190Z,10.28
2023-02-28T00:30:12.701Z,10.25
2023-02-28T00:32:41.608Z,10.23
2023-02-28T00:35:11.642Z,10.22
2023-02-28T00:37:41.706Z,10.22
2023-02-28T00:40:12.600Z,10.26
2023-02-28T00:42:41.270Z,10.26
2023-02-28T00:45:10.734Z,10.31
2023-02-28T00:47:38.952Z,10.35
2023-02-28T00:50:08.618Z,10.37
2023-02-28T00:52:37.538Z,10.42
2023-02-28T00:55:07.437Z,10.46
2023-02-28T00:57:35.721Z,10.47
2023-02-28T01:00:04.864Z,10.48
2023-02-28T01:02:33.802Z,10.50
2023-02-28T01:05:02.112Z,10.51
2023-02-28T01:07:30.398Z,10.46
2023-02-28T01:09:58.480Z,10.42
2023-02-28T01:12:30.539Z,10.37
2023-02-28T01:15:00.180Z,10.34
2023-02-28T01:17:29.173Z,10.29
2023-02-28T01:19:58.092Z,10.25
2023-02-28T01:22:26.365Z,10.21
2023-02-28T01:24:54.591Z,10.19
2023-02-28T01:27:22.741Z,10.18
2023-02-28T01:29:53.549Z,10.19
2023-02-28T01:32:22.476Z,10.21
2023-02-28T01:34:50.622Z,10.24
2023-02-28T01:37:19.022Z,10.27
2023-02-28T01:39:48.319Z,10.32
2023-02-28T01:42:16.697Z,10.38
2023-02-28T01:45:18.785Z,10.42
2023-02-28T01:47:50.554Z,10.44
2023-02-28T01:50:21.764Z,10.47
2023-02-28T01:52:51.246Z,10.52
2023-02-28T01:55:22.938Z,10.55
2023-02-28T01:57:54.345Z,10.56
2023-02-28T02:00:27.887Z,10.55
2023-02-28T02:03:02.582Z,10.52
2023-02-28T02:05:33.348Z,10.47
2023-02-28T02:08:06.440Z,10.47
2023-02-28T02:10:37.763Z,10.44
2023-02-28T02:13:24.375Z,10.48
2023-02-28T02:16:04.911Z,10.49
2023-02-28T02:18:40.867Z,10.52
2023-02-28T02:21:48.302Z,10.55
2023-02-28T02:24:50.395Z,10.56
2023-02-28T02:27:28.495Z,10.55
2023-02-28T02:30:20.624Z,10.54
2023-02-28T02:33:28.020Z,10.54
2023-02-28T02:36:02.359Z,10.52
2023-02-28T02:38:36.865Z,10.56
2023-02-28T02:41:13.109Z,10.55
2023-02-28T02:43:47.504Z,10.58
2023-02-28T02:46:19.991Z,10.61
2023-02-28T02:48:49.777Z,10.60
2023-02-28T02:51:24.145Z,10.61
2023-02-28T02:53:56.803Z,10.62
2023-02-28T02:56:29.593Z,10.59
2023-02-28T02:59:04.612Z,10.60
2023-02-28T03:01:34.650Z,10.60
2023-02-28T03:04:05.502Z,10.60
2023-02-28T03:06:36.368Z,10.61
2023-02-28T03:09:05.878Z,10.62
2023-02-28T03:11:38.889Z,10.64
2023-02-28T03:14:25.462Z,10.68
2023-02-28T03:17:22.184Z,10.70
2023-02-28T03:19:57.938Z,10.73
2023-02-28T03:22:54.345Z,10.75
2023-02-28T03:25:32.015Z,10.76
2023-02-28T03:28:08.638Z,10.78
2023-02-28T03:30:44.188Z,10.80
2023-02-28T03:33:16.964Z,10.80
2023-02-28T03:35:50.854Z,10.81
2023-02-28T03:38:24.643Z,10.81
2023-02-28T03:41:06.881Z,10.81
2023-02-28T03:43:39.166Z,10.82
2023-02-28T03:46:12.513Z,10.85
2023-02-28T03:48:46.585Z,10.80
2023-02-28T03:51:19.486Z,10.78
2023-02-28T03:53:54.602Z,10.75
2023-02-28T03:56:26.968Z,10.74
2023-02-28T03:59:01.213Z,10.73
2023-02-28T04:01:34.847Z,10.74
2023-02-28T04:04:03.320Z,10.76
2023-02-28T04:06:34.341Z,10.75
2023-02-28T04:09:05.750Z,10.78
2023-02-28T04:11:37.658Z,10.78
2023-02-28T04:14:07.138Z,10.74
2023-02-28T04:16:36.771Z,10.70
2023-02-28T04:19:06.427Z,10.67
2023-02-28T04:21:36.656Z,10.60
2023-02-28T04:24:07.323Z,10.52
2023-02-28T04:26:37.351Z,10.43
2023-02-28T04:29:06.993Z,10.36
2023-02-28T04:31:35.783Z,10.27
2023-02-28T04:34:04.393Z,10.20
2023-02-28T04:36:32.444Z,10.17
2023-02-28T04:39:01.047Z,10.10
2023-02-28T04:41:33.830Z,10.02
2023-02-28T04:44:02.097Z,9.95
2023-02-28T04:46:30.109Z,9.88
2023-02-28T04:48:58.332Z,9.82
2023-02-28T04:51:26.603Z,9.75
2023-02-28T04:53:55.239Z,9.70
2023-02-28T04:56:23.816Z,9.65
2023-02-28T04:58:56.421Z,9.60
2023-02-28T05:01:26.675Z,9.57
2023-02-28T05:03:56.279Z,9.51
2023-02-28T05:06:25.920Z,9.47
2023-02-28T05:08:54.578Z,9.42
2023-02-28T05:11:25.971Z,9.40
2023-02-28T05:13:56.294Z,9.36
2023-02-28T05:16:24.647Z,9.32
2023-02-28T05:18:54.884Z,9.28
2023-02-28T05:21:29.753Z,9.22
2023-02-28T05:23:59.187Z,9.13
2023-02-28T05:26:28.226Z,9.04
2023-02-28T05:28:58.124Z,8.96
2023-02-28T05:31:26.354Z,8.90
2023-02-28T05:33:55.816Z,8.83
2023-02-28T05:36:24.390Z,8.82
2023-02-28T05:38:53.193Z,8.81
2023-02-28T05:41:22.959Z,8.81
2023-02-28T05:43:51.192Z,8.80
2023-02-28T05:46:20.611Z,8.80
2023-02-28T05:48:49.949Z,8.76
2023-02-28T05:51:18.194Z,8.77
2023-02-28T05:53:46.432Z,8.77
2023-02-28T05:56:14.491Z,8.77
2023-02-28T05:58:42.883Z,8.82
2023-02-28T06:01:34.402Z,8.90
2023-02-28T06:04:02.975Z,8.95
2023-02-28T06:06:31.776Z,9.03
2023-02-28T06:08:59.997Z,9.14
2023-02-28T06:11:29.388Z,9.24
2023-02-28T06:14:00.970Z,9.36
2023-02-28T06:16:32.218Z,9.47
2023-02-28T06:19:02.454Z,9.58
2023-02-28T06:21:31.292Z,9.67
2023-02-28T06:24:00.188Z,9.76
2023-02-28T06:26:28.517Z,9.84
2023-02-28T06:28:56.795Z,9.92
2023-02-28T06:31:27.071Z,9.99
2023-02-28T06:33:57.062Z,10.06
2023-02-28T06:36:25.432Z,10.15
2023-02-28T06:38:56.352Z,10.20
2023-02-28T06:41:25.768Z,10.27
2023-02-28T06:43:55.003Z,10.32
2023-02-28T06:46:23.433Z,10.39
2023-02-28T06:48:52.073Z,10.44
2023-02-28T06:51:25.427Z,10.49
2023-02-28T06:53:53.621Z,10.54
2023-02-28T06:56:22.578Z,10.56
2023-02-28T06:58:51.705Z,10.60
2023-02-28T07:01:20.177Z,10.60
2023-02-28T07:03:53.454Z,10.64
2023-02-28T07:06:24.847Z,10.65
2023-02-28T07:08:54.107Z,10.71
2023-02-28T07:11:23.758Z,10.74
2023-02-28T07:13:52.061Z,10.78
2023-02-28T07:16:21.948Z,10.77
2023-02-28T07:18:50.565Z,10.77
2023-02-28T07:21:18.566Z,10.77
2023-02-28T07:23:50.039Z,10.76
2023-02-28T07:26:19.554Z,10.77
2023-02-28T07:28:49.970Z,10.78
2023-02-28T07:31:19.626Z,10.81
2023-02-28T07:33:48.107Z,10.88
2023-02-28T07:36:21.412Z,10.88
2023-02-28T07:38:52.063Z,10.91
2023-02-28T07:41:22.053Z,10.92
2023-02-28T07:43:50.873Z,10.93
2023-02-28T07:46:21.525Z,10.94
2023-02-28T07:48:50.214Z,10.94
2023-02-28T07:51:18.622Z,10.95
2023-02-28T07:53:47.017Z,10.97
2023-02-28T07:56:16.599Z,10.99
2023-02-28T07:58:44.898Z,11.03
2023-02-28T08:01:13.690Z,11.13
2023-02-28T08:03:42.398Z,11.21
2023-02-28T08:06:18.365Z,11.27
2023-02-28T08:08:47.324Z,11.35
2023-02-28T08:11:19.429Z,11.39
2023-02-28T08:13:51.075Z,11.39
2023-02-28T08:16:23.407Z,11.38
2023-02-28T08:18:53.098Z,11.40
2023-02-28T08:21:23.615Z,11.44
2023-02-28T08:23:53.675Z,11.49
2023-02-28T08:26:26.971Z,11.55
2023-02-28T08:28:57.125Z,11.60
2023-02-28T08:31:32.640Z,11.69
2023-02-28T08:34:02.032Z,11.75
2023-02-28T08:36:31.061Z,11.77
2023-02-28T08:39:02.612Z,11.85
2023-02-28T08:41:33.403Z,11.90
2023-02-28T08:44:09.868Z,11.99
2023-02-28T08:49:56.813Z,12.24
2023-02-28T08:52:28.475Z,12.37
2023-02-28T08:54:57.157Z,12.48
2023-02-28T08:57:28.715Z,12.47
2023-02-28T08:59:56.928Z,12.51
2023-02-28T09:02:25.561Z,12.58
2023-02-28T09:04:54.093Z,12.67
2023-02-28T09:07:22.278Z,12.69
2023-02-28T09:09:58.915Z,12.75
2023-02-28T09:12:30.147Z,12.85
2023-02-28T09:14:59.540Z,12.92
2023-02-28T09:17:30.842Z,12.97
2023-02-28T09:19:59.566Z,12.98
2023-02-28T09:22:28.763Z,12.96
2023-02-28T09:24:57.182Z,12.99
2023-02-28T09:30:23.345Z,13.02
2023-02-28T09:32:54.406Z,13.05
2023-02-28T09:35:24.570Z,13.14
2023-02-28T09:37:57.049Z,13.16
2023-02-28T09:40:27.140Z,13.18
2023-02-28T09:43:01.801Z,13.21
2023-02-28T09:45:35.910Z,13.24
2023-02-28T09:48:11.326Z,13.32
2023-02-28T09:50:43.087Z,13.40
2023-02-28T09:53:22.371Z,13.52
2023-02-28T09:55:56.033Z,13.68
2023-02-28T09:58:31.017Z,13.80
2023-02-28T10:01:09.681Z,13.88
2023-02-28T10:03:42.453Z,13.93
2023-02-28T10:06:16.751Z,13.94
2023-02-28T10:08:53.338Z,14.00
2023-02-28T10:11:24.078Z,14.07
2023-02-28T10:14:02.777Z,14.08
2023-02-28T10:16:36.967Z,14.10
2023-02-28T10:19:08.715Z,14.20
2023-02-28T10:21:41.572Z,14.21
2023-02-28T10:24:22.080Z,14.23
2023-02-28T10:26:52.490Z,14.27
2023-02-28T10:29:20.745Z,14.29
2023-02-28T10:31:52.401Z,14.38
2023-02-28T10:34:21.110Z,14.44
2023-02-28T10:36:53.477Z,14.55
2023-02-28T10:39:45.393Z,14.64
2023-02-28T10:42:46.685Z,14.62
2023-02-28T10:51:39.326Z,14.80
2023-02-28T11:00:41.377Z,14.74
2023-02-28T11:03:27.499Z,14.66
2023-02-28T11:05:57.540Z,14.55
2023-02-28T11:08:26.589Z,14.51
2023-02-28T11:11:01.307Z,14.43
2023-02-28T11:13:37.932Z,14.28
2023-02-28T11:16:10.815Z,14.21
2023-02-28T11:18:49.188Z,14.14
2023-02-28T11:21:36.241Z,14.18
2023-02-28T11:24:11.512Z,14.28
2023-02-28T11:26:44.534Z,14.45
2023-02-28T11:29:20.413Z,14.61
2023-02-28T11:32:20.939Z,14.79
2023-02-28T11:35:04.134Z,14.92
2023-02-28T11:37:33.653Z,15.06
2023-02-28T11:40:01.755Z,15.16
2023-02-28T11:42:48.446Z,15.26
2023-02-28T11:45:41.876Z,15.28
2023-02-28T11:48:21.169Z,15.30
2023-02-28T11:51:00.481Z,15.34
2023-02-28T11:53:46.428Z,15.32
2023-02-28T11:56:25.381Z,15.29
2023-02-28T11:59:03.523Z,15.26
2023-02-28T12:01:50.908Z,15.26
2023-02-28T12:04:35.485Z,15.24
2023-02-28T12:07:14.676Z,15.25
2023-02-28T12:09:51.798Z,15.30
2023-02-28T12:12:39.375Z,15.29
2023-02-28T12:15:30.634Z,15.27
2023-02-28T12:18:13.464Z,15.25
2023-02-28T12:20:52.287Z,15.20
2023-02-28T12:23:41.763Z,15.22
2023-02-28T12:26:18.561Z,15.29
2023-02-28T12:28:52.781Z,15.34
2023-02-28T12:31:24.294Z,15.36
2023-02-28T12:33:56.436Z,15.40
2023-02-28T12:36:27.404Z,15.42
2023-02-28T12:39:02.751Z,15.44
2023-02-28T12:41:42.314Z,15.51
2023-02-28T12:44:16.996Z,15.63
2023-02-28T12:46:50.831Z,15.80
2023-02-28T12:49:28.117Z,15.99
2023-02-28T12:51:56.376Z,16.18
2023-02-28T12:54:32.316Z,16.36
2023-02-28T12:57:11.860Z,16.49
2023-02-28T12:59:44.437Z,16.63
2023-02-28T13:02:35.835Z,16.77
2023-02-28T13:05:19.820Z,16.93
2023-02-28T13:08:35.645Z,16.95
2023-02-28T13:11:10.043Z,16.94
2023-02-28T13:13:47.190Z,16.95
2023-02-28T13:16:15.430Z,16.91
2023-02-28T13:18:46.598Z,16.88
2023-02-28T13:21:25.963Z,16.72
2023-02-28T13:24:04.434Z,16.56
2023-02-28T13:27:10.551Z,16.51
2023-02-28T13:29:41.573Z,16.42
2023-02-28T13:32:43.473Z,16.37
2023-02-28T13:35:36.258Z,16.37
2023-02-28T13:38:36.149Z,16.41
2023-02-28T13:41:41.673Z,16.41
2023-02-28T13:44:12.244Z,16.36
2023-02-28T13:47:23.399Z,16.34
2023-02-28T13:49:53.764Z,16.21
2023-02-28T13:52:25.957Z,16.16
2023-02-28T13:55:29.410Z,16.14
2023-02-28T13:58:13.999Z,16.09
2023-02-28T14:01:12.950Z,16.08
2023-02-28T14:04:01.907Z,16.06
2023-02-28T14:06:33.448Z,16.06
2023-02-28T14:09:08.498Z,16.03
2023-02-28T14:11:38.153Z,15.98
2023-02-28T14:14:07.632Z,15.90
2023-02-28T14:16:43.490Z,15.96
2023-02-28T14:19:27.781Z,16.07
2023-02-28T14:22:12.088Z,16.21
2023-02-28T14:25:06.230Z,16.39
2023-02-28T14:27:52.125Z,16.06
2023-02-28T14:30:45.583Z,16.16
2023-02-28T14:33:25.532Z,16.63
2023-02-28T14:36:08.368Z,17.03
2023-02-28T14:38:42.975Z,16.98
2023-02-28T14:41:20.112Z,16.90
2023-02-28T14:43:57.358Z,16.78
2023-02-28T14:46:30.376Z,16.71
2023-02-28T14:48:58.704Z,16.63
2023-02-28T14:51:28.115Z,16.64
2023-02-28T14:54:01.082Z,16.87
2023-02-28T14:56:35.729Z,17.03
2023-02-28T14:59:04.234Z,17.24
2023-02-28T15:01:33.162Z,17.26
2023-02-28T15:04:04.355Z,17.11
2023-02-28T15:06:35.067Z,16.89
2023-02-28T15:09:16.064Z,16.91
2023-02-28T15:11:47.651Z,16.85
2023-02-28T15:14:21.552Z,16.81
2023-02-28T15:17:12.058Z,16.72
2023-02-28T15:19:44.696Z,16.57
2023-02-28T15:22:22.540Z,16.55
2023-02-28T15:24:53.936Z,16.43
2023-02-28T15:27:24.532Z,16.18
2023-02-28T15:29:57.080Z,15.97
2023-02-28T15:32:32.646Z,15.73
2023-02-28T15:35:19.371Z,15.55
2023-02-28T15:37:51.230Z,15.44
2023-02-28T15:40:25.840Z,15.51
2023-02-28T15:43:07.721Z,15.62
2023-02-28T15:45:42.090Z,15.76
2023-02-28T15:48:19.304Z,15.87
2023-02-28T15:50:50.966Z,15.96
2023-02-28T15:53:24.048Z,15.92
2023-02-28T15:55:58.680Z,15.70
2023-02-28T15:58:27.412Z,15.50
2023-02-28T16:01:11.158Z,15.34
2023-02-28T16:03:47.438Z,15.17
2023-02-28T16:06:35.181Z,15.04
2023-02-28T16:09:09.037Z,14.92
2023-02-28T16:11:42.288Z,14.87
2023-02-28T16:14:19.454Z,14.82
2023-02-28T16:16:50.133Z,14.78
2023-02-28T16:19:18.267Z,14.67
2023-02-28T16:21:46.630Z,14.63
2023-02-28T16:24:16.434Z,14.55
2023-02-28T16:26:49.230Z,14.44
2023-02-28T16:29:29.782Z,14.40
2023-02-28T16:31:58.159Z,14.27
2023-02-28T16:34:26.461Z,14.19
2023-02-28T16:36:55.048Z,14.12
2023-02-28T16:39:25.084Z,14.10
2023-02-28T16:41:54.187Z,14.06
2023-02-28T16:44:29.549Z,13.99
2023-02-28T16:46:57.878Z,13.94
2023-02-28T16:49:25.879Z,13.93
2023-02-28T16:51:53.935Z,13.89
2023-02-28T16:54:21.965Z,13.91
2023-02-28T16:56:51.922Z,13.87
2023-02-28T16:59:23.746Z,13.82
2023-02-28T17:01:52.715Z,13.73
2023-02-28T17:04:20.808Z,13.68
2023-02-28T17:06:49.172Z,13.62
2023-02-28T17:09:21.004Z,13.59
2023-02-28T17:11:51.641Z,13.56
2023-02-28T17:14:19.589Z,13.54
2023-02-28T17:16:48.231Z,13.56
2023-02-28T17:19:19.758Z,13.56
2023-02-28T17:21:48.554Z,13.54
2023-02-28T17:24:22.091Z,13.53
2023-02-28T17:26:54.945Z,13.52
2023-02-28T17:29:25.515Z,13.52
2023-02-28T17:31:54.123Z,13.52
2023-02-28T17:34:22.686Z,13.49
2023-02-28T17:36:54.091Z,13.49
2023-02-28T17:39:25.346Z,13.43
2023-02-28T17:41:56.484Z,13.42
2023-02-28T17:44:26.168Z,13.39
2023-02-28T17:46:55.824Z,13.34
2023-02-28T17:49:24.966Z,13.29
2023-02-28T17:51:53.010Z,13.26
2023-02-28T17:54:20.969Z,13.21
2023-02-28T17:56:48.995Z,13.12
2023-02-28T17:59:18.853Z,13.06
2023-02-28T18:01:50.027Z,12.97
2023-02-28T18:04:18.443Z,12.95
2023-02-28T18:06:50.982Z,12.88
2023-02-28T18:09:23.006Z,12.83
2023-02-28T18:11:51.435Z,12.73
2023-02-28T18:14:23.784Z,12.69
2023-02-28T18:16:52.632Z,12.63
2023-02-28T18:19:21.246Z,12.62
2023-02-28T18:21:51.843Z,12.63
2023-02-28T18:24:21.006Z,12.70
2023-02-28T18:26:49.087Z,12.71
2023-02-28T18:29:22.083Z,12.75
2023-02-28T18:31:51.346Z,12.80
2023-02-28T18:34:21.783Z,12.81
2023-02-28T18:40:01.454Z,12.81
2023-02-28T18:42:31.028Z,12.83
2023-02-28T18:45:00.648Z,12.85
2023-02-28T18:47:28.673Z,12.87
2023-02-28T18:49:58.431Z,12.92
2023-02-28T18:52:27.829Z,12.96
2023-02-28T18:54:56.505Z,12.98
2023-02-28T18:57:24.686Z,12.95
2023-02-28T18:59:53.529Z,12.92
2023-02-28T19:02:23.103Z,12.85
2023-02-28T19:04:52.175Z,12.77
2023-02-28T19:07:20.179Z,12.68
2023-02-28T19:09:49.483Z,12.59
2023-02-28T19:12:20.680Z,12.52
2023-02-28T19:14:51.711Z,12.42
2023-02-28T19:17:20.327Z,12.34
2023-02-28T19:19:49.934Z,12.28
2023-02-28T19:22:18.163Z,12.21
2023-02-28T19:24:47.840Z,12.17
2023-02-28T19:27:17.342Z,12.11
2023-02-28T19:29:46.991Z,12.05
2023-02-28T19:32:15.067Z,12.00
2023-02-28T19:34:43.604Z,11.96
2023-02-28T19:37:14.117Z,11.88
2023-02-28T19:39:46.076Z,11.83
2023-02-28T19:42:15.989Z,11.79
2023-02-28T19:44:45.082Z,11.75
2023-02-28T19:47:15.148Z,11.73
2023-02-28T19:49:44.387Z,11.69
2023-02-28T19:52:15.535Z,11.66
2023-02-28T19:54:44.129Z,11.66
2023-02-28T19:57:12.770Z,11.64
2023-02-28T19:59:41.112Z,11.63
2023-02-28T20:02:14.993Z,11.62
2023-02-28T20:04:43.818Z,11.65
2023-02-28T20:07:13.634Z,11.65
2023-02-28T20:09:42.226Z,11.68
2023-02-28T20:12:23.166Z,11.72
2023-02-28T20:14:52.059Z,11.81
2023-02-28T20:17:20.511Z,11.88
2023-02-28T20:19:48.582Z,11.93
2023-02-28T20:22:18.630Z,11.96
2023-02-28T20:24:51.974Z,12.01
2023-02-28T20:27:20.054Z,12.04
2023-02-28T20:29:48.797Z,12.04
2023-02-28T20:32:18.259Z,12.02
2023-02-28T20:34:46.316Z,12.01
2023-02-28T20:37:16.877Z,11.94
2023-02-28T20:39:48.658Z,11.92
2023-02-28T20:42:17.166Z,11.91
2023-02-28T20:44:45.743Z,11.89
2023-02-28T20:47:13.831Z,11.87
2023-02-28T20:49:42.672Z,11.85
2023-02-28T20:52:10.788Z,11.81
2023-02-28T20:54:39.174Z,11.81
2023-02-28T20:57:10.128Z,11.81
2023-02-28T20:59:38.896Z,11.83
2023-02-28T21:02:07.472Z,11.83
2023-02-28T21:04:35.950Z,11.87
2023-02-28T21:07:04.558Z,11.88
2023-02-28T21:09:32.611Z,11.90
2023-02-28T21:12:00.908Z,11.91
2023-02-28T21:14:32.247Z,11.91
2023-02-28T21:17:00.629Z,11.92
2023-02-28T21:19:28.594Z,11.94
2023-02-28T21:21:58.656Z,11.92
2023-02-28T21:24:27.033Z,11.91
2023-02-28T21:26:57.060Z,11.88
2023-02-28T21:29:25.465Z,11.85
2023-02-28T21:31:55.820Z,11.85
2023-02-28T21:34:25.209Z,11.83
2023-02-28T21:36:54.205Z,11.85
2023-02-28T21:39:25.855Z,11.88
2023-02-28T21:41:56.915Z,11.91
2023-02-28T21:44:26.691Z,11.94
2023-02-28T21:46:58.177Z,11.97
2023-02-28T21:49:26.207Z,11.98
2023-02-28T21:51:57.559Z,12.01
2023-02-28T21:54:26.511Z,12.02
2023-02-28T21:56:56.897Z,12.04
2023-02-28T21:59:25.051Z,12.09
2023-02-28T22:01:55.036Z,12.13
2023-02-28T22:04:24.603Z,12.15
2023-02-28T22:06:54.533Z,12.18
2023-02-28T22:09:23.282Z,12.20
2023-02-28T22:11:51.838Z,12.21
2023-02-28T22:14:20.469Z,12.24
2023-02-28T22:16:52.662Z,12.26
2023-02-28T22:19:22.432Z,12.26
2023-02-28T22:21:53.944Z,12.28
2023-02-28T22:24:24.586Z,12.32
2023-02-28T22:26:53.249Z,12.33
2023-02-28T22:29:21.383Z,12.32
2023-02-28T22:31:49.626Z,12.33
2023-02-28T22:34:17.901Z,12.33
2023-02-28T22:36:46.121Z,12.28
2023-02-28T22:39:15.598Z,12.21
2023-02-28T22:41:43.893Z,12.19
2023-02-28T22:44:12.756Z,12.17
2023-02-28T22:46:41.717Z,12.17
2023-02-28T22:49:10.162Z,12.16
2023-02-28T22:51:38.163Z,12.19
2023-02-28T22:54:06.411Z,12.22
2023-02-28T22:56:35.837Z,12.27
2023-02-28T22:59:04.321Z,12.35
2023-02-28T23:01:33.802Z,12.38
2023-02-28T23:04:02.810Z,12.42
2023-02-28T23:06:32.904Z,12.45
2023-02-28T23:09:03.726Z,12.54
2023-02-28T23:11:34.213Z,12.58
2023-02-28T23:14:03.890Z,12.56
2023-02-28T23:16:34.637Z,12.59
2023-02-28T23:19:06.157Z,12.62
2023-02-28T23:21:34.902Z,12.62
2023-02-28T23:24:03.907Z,12.67
2023-02-28T23:26:33.396Z,12.67
2023-02-28T23:29:01.550Z,12.68
2023-02-28T23:31:31.524Z,12.68
2023-02-28T23:34:00.719Z,12.68
2023-02-28T23:36:29.631Z,12.68
2023-02-28T23:38:58.074Z,12.71
2023-02-28T23:41:27.530Z,12.71
2023-02-28T23:43:56.399Z,12.72
2023-02-28T23:46:24.505Z,12.74
2023-02-28T23:48:53.964Z,12.75
2023-02-28T23:51:23.569Z,12.76
2023-02-28T23:53:53.531Z,12.75
2023-02-28T23:56:23.789Z,12.76
2023-02-28T23:58:55.014Z,12.79
